Time;durP1;ratioP1;P1;durP2;ratioP2;P2;SDS_P1;SDS_P2;PMS_P1;PMS_P2;Temp;Humidity;BMP_temperature;BMP_pressure;BME280_temperature;BME280_humidity;BME280_pressure;Samples;Min_cycle;Max_cycle;Signal;HPM_P1;HPM_P2
2021/10/26 00:02:05;;;;;;;26.55;14.57;;;;;;;3.70;100.00;98619.16;4967764;28;20027;-79
2021/10/26 00:04:31;;;;;;;28.55;15.70;;;;;;;3.71;100.00;98619.97;4961524;28;20036;-80
2021/10/26 00:06:56;;;;;;;28.27;16.20;;;;;;;3.74;100.00;98614.94;4959423;28;20476;-79
2021/10/26 00:09:22;;;;;;;27.45;16.10;;;;;;;3.77;100.00;98614.47;4961719;28;20087;-79
2021/10/26 00:11:48;;;;;;;27.35;15.85;;;;;;;3.84;100.00;98611.63;4942560;29;20047;-77
2021/10/26 00:14:14;;;;;;;22.67;14.82;;;;;;;3.77;100.00;98602.81;4956096;29;20038;-79
2021/10/26 00:16:39;;;;;;;29.95;15.23;;;;;;;3.84;100.00;98608.94;4969937;29;20046;-79
2021/10/26 00:19:05;;;;;;;27.55;15.98;;;;;;;3.81;100.00;98603.16;4964655;29;20488;-77
2021/10/26 00:21:30;;;;;;;27.73;15.00;;;;;;;3.80;100.00;98605.03;4975246;29;20519;-80
2021/10/26 00:23:56;;;;;;;26.75;15.15;;;;;;;3.76;100.00;98599.28;4973669;29;20440;-79
2021/10/26 00:26:21;;;;;;;33.65;16.50;;;;;;;3.78;100.00;98594.47;4972839;29;20042;-80
2021/10/26 00:28:46;;;;;;;28.92;15.77;;;;;;;3.78;100.00;98588.22;4972241;29;20039;-80
2021/10/26 00:31:12;;;;;;;33.58;17.38;;;;;;;3.77;100.00;98592.00;4957404;29;20031;-79
2021/10/26 00:33:37;;;;;;;31.70;17.40;;;;;;;3.68;100.00;98582.59;4946426;29;20488;-80
2021/10/26 00:36:03;;;;;;;31.10;17.15;;;;;;;3.61;100.00;98581.88;4979429;28;20012;-78
2021/10/26 00:38:29;;;;;;;28.92;17.85;;;;;;;3.63;100.00;98575.16;4954328;29;20038;-80
2021/10/26 00:40:55;;;;;;;29.38;17.35;;;;;;;3.69;100.00;98576.13;4945072;29;20034;-80
2021/10/26 00:43:21;;;;;;;29.83;17.10;;;;;;;3.74;100.00;98576.22;4944948;29;20027;-81
2021/10/26 00:45:47;;;;;;;33.40;17.17;;;;;;;3.75;100.00;98573.31;4959658;29;20043;-80
2021/10/26 00:48:12;;;;;;;30.85;15.57;;;;;;;3.71;100.00;98572.13;4960105;29;20031;-77
2021/10/26 00:50:38;;;;;;;31.40;16.50;;;;;;;3.66;100.00;98563.91;4960060;29;20023;-79
2021/10/26 00:53:03;;;;;;;27.27;16.02;;;;;;;3.63;100.00;98561.63;4960140;29;20035;-79
2021/10/26 00:55:29;;;;;;;26.95;15.30;;;;;;;3.58;100.00;98560.72;4944085;29;20062;-80
2021/10/26 00:57:54;;;;;;;32.13;15.93;;;;;;;3.58;100.00;98571.53;4940771;29;20031;-79
2021/10/26 01:00:21;;;;;;;31.92;17.25;;;;;;;3.56;100.00;98565.53;4956777;29;20118;-79
2021/10/26 01:02:47;;;;;;;27.20;16.50;;;;;;;3.56;100.00;98565.53;4956924;29;20481;-78
2021/10/26 01:05:14;;;;;;;31.17;18.48;;;;;;;3.58;100.00;98560.72;4957061;29;20066;-78
2021/10/26 01:07:40;;;;;;;32.42;17.55;;;;;;;3.59;100.00;98557.78;4956627;29;20134;-79
2021/10/26 01:10:08;;;;;;;31.42;17.67;;;;;;;3.58;100.00;98552.59;4958319;29;20104;-78
2021/10/26 01:12:35;;;;;;;33.25;16.48;;;;;;;3.62;100.00;98551.91;4959301;28;20400;-77
2021/10/26 01:15:01;;;;;;;31.33;16.52;;;;;;;3.61;100.00;98550.25;4957506;29;20050;-78
2021/10/26 01:17:27;;;;;;;31.98;17.25;;;;;;;3.68;100.00;98550.97;4955581;29;20481;-78
2021/10/26 01:19:55;;;;;;;29.95;16.90;;;;;;;3.71;100.00;98555.06;4955100;29;20039;-78
2021/10/26 01:22:24;;;;;;;31.33;15.98;;;;;;;3.74;100.00;98544.59;4938384;29;20063;-79
2021/10/26 01:24:50;;;;;;;29.70;17.88;;;;;;;3.74;100.00;98550.00;4955706;29;20032;-79
2021/10/26 01:27:15;;;;;;;28.42;16.10;;;;;;;3.70;100.00;98537.19;4942157;29;20019;-79
2021/10/26 01:29:42;;;;;;;27.95;16.05;;;;;;;3.72;100.00;98551.31;4957986;29;20385;-79
2021/10/26 01:32:10;;;;;;;27.88;16.73;;;;;;;3.75;100.00;98542.72;4957910;29;20070;-79
2021/10/26 01:34:36;;;;;;;27.48;17.00;;;;;;;3.73;100.00;98544.81;4957813;29;20019;-78
2021/10/26 01:37:05;;;;;;;27.77;16.98;;;;;;;3.72;100.00;98541.31;4960471;29;20038;-81
2021/10/26 01:39:31;;;;;;;27.77;16.90;;;;;;;3.72;100.00;98545.91;4947375;29;20065;-79
2021/10/26 01:41:58;;;;;;;32.80;17.85;;;;;;;3.72;100.00;98540.50;4944066;29;20015;-79
2021/10/26 01:44:24;;;;;;;31.65;16.75;;;;;;;3.61;100.00;98530.50;4942938;29;20027;-79
2021/10/26 01:46:50;;;;;;;28.77;18.05;;;;;;;3.55;100.00;98543.09;4943341;29;20058;-80
2021/10/26 01:49:17;;;;;;;31.25;18.13;;;;;;;3.58;100.00;98536.38;4960515;29;20031;-79
2021/10/26 01:51:42;;;;;;;27.67;16.90;;;;;;;3.64;100.00;98535.44;4961156;29;20114;-79
2021/10/26 01:54:08;;;;;;;27.90;16.42;;;;;;;3.61;100.00;98530.50;4946899;29;20079;-79
2021/10/26 01:56:33;;;;;;;29.73;18.33;;;;;;;3.51;100.00;98533.78;4966227;29;20023;-79
2021/10/26 01:58:59;;;;;;;28.33;18.35;;;;;;;3.46;100.00;98525.56;4942346;29;20029;-79
2021/10/26 02:01:24;;;;;;;33.55;17.98;;;;;;;3.31;100.00;98525.22;4958936;29;20590;-79
2021/10/26 02:03:50;;;;;;;29.77;18.75;;;;;;;3.26;100.00;98538.59;4962270;29;20126;-79
2021/10/26 02:06:16;;;;;;;32.53;18.05;;;;;;;3.20;100.00;98534.97;4964278;29;20425;-78
2021/10/26 02:08:42;;;;;;;32.25;19.05;;;;;;;3.23;100.00;98526.38;4958157;29;20048;-78
2021/10/26 02:11:07;;;;;;;33.25;18.90;;;;;;;3.24;100.00;98532.63;4950494;29;20032;-78
2021/10/26 02:13:33;;;;;;;37.92;19.27;;;;;;;3.32;100.00;98523.34;4946488;29;20480;-78
2021/10/26 02:15:58;;;;;;;36.47;17.85;;;;;;;3.23;100.00;98531.78;4930611;29;20040;-79
2021/10/26 02:18:24;;;;;;;31.40;18.08;;;;;;;3.23;100.00;98523.69;4946268;29;20056;-78
2021/10/26 02:20:49;;;;;;;31.88;17.50;;;;;;;3.22;100.00;98535.56;4937319;29;20493;-77
2021/10/26 02:23:16;;;;;;;29.30;16.08;;;;;;;3.11;100.00;98530.13;4917993;29;20027;-78
2021/10/26 02:25:42;;;;;;;26.83;17.02;;;;;;;3.02;100.00;98528.81;4936624;29;20063;-78
2021/10/26 02:28:07;;;;;;;30.75;17.02;;;;;;;3.09;100.00;98529.56;4939260;29;20024;-78
2021/10/26 02:30:33;;;;;;;29.52;17.98;;;;;;;3.07;100.00;98526.28;4939456;29;20386;-78
2021/10/26 02:32:58;;;;;;;24.88;16.85;;;;;;;2.98;100.00;98520.34;4939694;29;20035;-78
2021/10/26 02:35:23;;;;;;;29.85;18.23;;;;;;;2.94;100.00;98523.78;4938927;29;20031;-78
2021/10/26 02:37:49;;;;;;;29.23;17.17;;;;;;;2.95;100.00;98517.28;4939430;29;20042;-78
2021/10/26 02:40:14;;;;;;;31.80;17.98;;;;;;;2.85;100.00;98533.28;4941090;29;20020;-79
2021/10/26 02:42:40;;;;;;;28.95;17.08;;;;;;;2.92;100.00;98520.47;4942556;29;20122;-79
2021/10/26 02:45:06;;;;;;;33.17;17.00;;;;;;;2.93;100.00;98527.53;4945067;29;20378;-79
2021/10/26 02:47:31;;;;;;;32.50;16.83;;;;;;;2.95;100.00;98528.94;4929200;29;20055;-80
2021/10/26 02:49:57;;;;;;;27.75;15.90;;;;;;;3.03;100.00;98530.47;4948048;29;20470;-81
2021/10/26 02:52:22;;;;;;;28.63;16.10;;;;;;;2.96;100.00;98519.78;4928177;29;20024;-81
2021/10/26 02:54:48;;;;;;;28.08;17.45;;;;;;;3.04;100.00;98522.13;4925998;29;20027;-80
2021/10/26 02:57:13;;;;;;;23.52;15.23;;;;;;;3.04;100.00;98515.91;4942237;29;20031;-80
2021/10/26 02:59:39;;;;;;;25.45;16.83;;;;;;;2.89;100.00;98519.06;4942866;29;20035;-78
2021/10/26 03:02:05;;;;;;;24.85;15.55;;;;;;;2.86;100.00;98514.13;4939344;28;20104;-78
2021/10/26 03:04:31;;;;;;;35.15;17.88;;;;;;;3.13;100.00;98519.94;4942204;29;20042;-78
2021/10/26 03:06:56;;;;;;;27.15;16.98;;;;;;;3.07;100.00;98515.47;4943786;29;20048;-79
2021/10/26 03:09:22;;;;;;;34.28;17.80;;;;;;;3.38;100.00;98517.81;4925410;29;20036;-79
2021/10/26 03:11:47;;;;;;;34.05;18.85;;;;;;;3.43;100.00;98517.94;4954250;29;20039;-76
2021/10/26 03:14:13;;;;;;;24.38;15.45;;;;;;;3.33;100.00;98519.56;4954082;28;20031;-77
2021/10/26 03:16:38;;;;;;;27.17;15.30;;;;;;;3.30;100.00;98523.56;4941818;29;20027;-78
2021/10/26 03:19:07;;;;;;;25.08;15.73;;;;;;;3.27;100.00;98520.50;4939327;28;20042;-78
2021/10/26 03:21:34;;;;;;;26.25;15.57;;;;;;;3.28;100.00;98523.00;4966062;28;20035;-80
2021/10/26 03:23:59;;;;;;;20.45;14.05;;;;;;;3.31;100.00;98527.09;4967263;28;20114;-77
2021/10/26 03:26:25;;;;;;;26.23;14.27;;;;;;;3.30;100.00;98520.88;4949733;28;20078;-80
2021/10/26 03:28:50;;;;;;;22.30;14.95;;;;;;;3.23;100.00;98515.56;4967948;28;20503;-80
2021/10/26 03:31:19;;;;;;;23.35;14.00;;;;;;;3.22;100.00;98513.94;4970340;28;20023;-80
2021/10/26 03:33:45;;;;;;;25.52;14.65;;;;;;;3.25;100.00;98515.34;4967506;28;20031;-78
2021/10/26 03:36:10;;;;;;;23.63;15.18;;;;;;;3.27;100.00;98513.22;4958729;28;20043;-79
2021/10/26 03:38:37;;;;;;;28.55;15.85;;;;;;;3.29;100.00;98513.81;4959174;28;20106;-79
2021/10/26 03:41:03;;;;;;;24.80;15.50;;;;;;;3.36;100.00;98500.16;4960024;28;20099;-79
2021/10/26 03:43:28;;;;;;;26.77;14.88;;;;;;;3.40;100.00;98504.88;4944309;28;20059;-78
2021/10/26 03:45:54;;;;;;;22.30;14.05;;;;;;;3.50;100.00;98509.69;4960522;28;20032;-78
2021/10/26 03:48:22;;;;;;;24.92;14.50;;;;;;;3.55;100.00;98504.41;4960599;28;20028;-79
2021/10/26 03:50:48;;;;;;;27.60;14.65;;;;;;;3.55;100.00;98507.09;4961424;28;20039;-80
2021/10/26 03:53:14;;;;;;;28.73;15.35;;;;;;;3.54;100.00;98508.19;4961068;28;20070;-79
2021/10/26 03:55:39;;;;;;;44.30;24.48;;;;;;;3.54;100.00;98508.97;4963078;28;20030;-79
2021/10/26 03:58:07;;;;;;;29.75;18.92;;;;;;;3.58;100.00;98501.22;4959902;28;20026;-81
2021/10/26 04:00:33;;;;;;;48.13;26.88;;;;;;;3.37;100.00;98504.53;4962029;28;20071;-80
2021/10/26 04:02:58;;;;;;;45.42;24.95;;;;;;;3.19;100.00;98509.00;4964758;29;20027;-80
2021/10/26 04:05:49;;;;;;;26.83;16.08;;;;;;;3.16;100.00;98514.06;4968359;29;20043;-80
2021/10/26 04:10:52;;;;;;;31.05;17.17;;;;;;;3.17;100.00;98508.41;4980044;28;20022;-79
2021/10/26 04:13:20;;;;;;;31.30;16.52;;;;;;;3.13;100.00;98498.31;4965541;28;20035;-80
2021/10/26 04:15:46;;;;;;;34.25;16.30;;;;;;;3.37;100.00;98507.22;4965600;29;20042;-79
2021/10/26 04:18:11;;;;;;;24.08;15.20;;;;;;;3.47;100.00;98502.88;4970521;29;20087;-79
2021/10/26 04:20:36;;;;;;;24.50;14.90;;;;;;;3.60;100.00;98507.22;4962965;29;20023;-78
2021/10/26 04:23:02;;;;;;;22.83;14.88;;;;;;;3.63;100.00;98510.25;4961357;29;20031;-80
2021/10/26 04:25:28;;;;;;;26.13;16.60;;;;;;;3.69;100.00;98501.22;4961600;29;20023;-79
2021/10/26 04:27:54;;;;;;;33.85;15.02;;;;;;;3.79;100.00;98506.00;4960395;28;20066;-80
2021/10/26 04:30:21;;;;;;;23.30;14.23;;;;;;;3.86;100.00;98498.56;4959187;29;20031;-79
2021/10/26 04:32:47;;;;;;;24.50;14.30;;;;;;;3.97;100.00;98495.03;4958555;29;20073;-80
2021/10/26 04:35:13;;;;;;;22.33;13.55;;;;;;;4.06;100.00;98501.72;4959336;28;20026;-80
2021/10/26 04:37:39;;;;;;;23.38;15.68;;;;;;;4.08;100.00;98496.88;4940803;29;20015;-79
2021/10/26 04:40:05;;;;;;;27.25;17.45;;;;;;;4.09;100.00;98490.41;4965976;28;20055;-78
2021/10/26 04:42:32;;;;;;;27.95;15.80;;;;;;;3.96;100.00;98495.25;4979826;28;20012;-80
2021/10/26 04:44:59;;;;;;;27.17;15.48;;;;;;;3.92;100.00;98484.09;4955331;29;20442;-79
2021/10/26 04:47:26;;;;;;;26.67;16.27;;;;;;;3.93;100.00;98493.88;4937703;29;20087;-80
2021/10/26 04:49:52;;;;;;;32.10;16.98;;;;;;;4.02;100.00;98488.88;4938785;29;20106;-79
2021/10/26 04:52:17;;;;;;;27.20;17.33;;;;;;;3.98;100.00;98488.53;4940483;29;20401;-79
2021/10/26 04:54:43;;;;;;;29.45;15.73;;;;;;;3.93;100.00;98485.75;4953702;29;20042;-79
2021/10/26 04:57:08;;;;;;;25.35;14.68;;;;;;;3.96;100.00;98482.56;4948522;29;20035;-80
2021/10/26 04:59:34;;;;;;;29.58;15.30;;;;;;;3.95;100.00;98488.19;4980129;28;20015;-79
2021/10/26 05:02:02;;;;;;;24.48;15.15;;;;;;;4.00;100.00;98483.72;4979706;28;21136;-81
2021/10/26 05:04:28;;;;;;;27.83;15.85;;;;;;;3.99;100.00;98484.78;4979014;28;20051;-81
2021/10/26 05:06:54;;;;;;;27.15;16.23;;;;;;;4.05;100.00;98486.53;4979256;29;20051;-78
2021/10/26 05:09:21;;;;;;;30.27;14.50;;;;;;;4.10;100.00;98473.09;4963269;29;20051;-79
2021/10/26 05:11:46;;;;;;;24.95;15.25;;;;;;;4.13;100.00;98486.16;4941448;29;20027;-79
2021/10/26 05:14:12;;;;;;;27.02;16.73;;;;;;;4.09;100.00;98479.59;4961748;29;20038;-80
2021/10/26 05:16:38;;;;;;;25.00;15.32;;;;;;;4.18;100.00;98475.44;4951362;29;20027;-80
2021/10/26 05:19:05;;;;;;;26.70;15.48;;;;;;;4.03;100.00;98466.19;4965006;29;20031;-80
2021/10/26 05:21:30;;;;;;;24.55;15.65;;;;;;;3.97;100.00;98469.84;4965576;29;20047;-79
2021/10/26 05:23:56;;;;;;;25.98;16.58;;;;;;;3.96;100.00;98479.84;4944350;29;20039;-76
2021/10/26 05:26:22;;;;;;;24.38;15.75;;;;;;;3.97;100.00;98478.81;4958781;29;20035;-77
2021/10/26 05:28:49;;;;;;;25.35;15.63;;;;;;;4.13;100.00;98491.59;4947371;29;20011;-79
2021/10/26 05:31:15;;;;;;;28.33;15.85;;;;;;;4.24;100.00;98488.00;4975972;29;20035;-80
2021/10/26 05:33:42;;;;;;;28.15;15.65;;;;;;;4.35;100.00;98493.59;4960652;28;20011;-77
2021/10/26 05:36:08;;;;;;;25.00;15.52;;;;;;;4.33;100.00;98494.66;4957964;29;20051;-79
2021/10/26 05:38:35;;;;;;;28.38;15.98;;;;;;;4.36;100.00;98495.22;4950197;29;20036;-79
2021/10/26 05:41:00;;;;;;;22.70;14.02;;;;;;;4.35;100.00;98493.59;4925338;29;20119;-79
2021/10/26 05:43:26;;;;;;;27.67;15.90;;;;;;;4.38;100.00;98501.25;4924974;29;20485;-77
2021/10/26 05:45:52;;;;;;;22.38;15.35;;;;;;;4.57;100.00;98502.69;4943189;29;20032;-81
2021/10/26 05:48:19;;;;;;;22.48;15.52;;;;;;;4.68;100.00;98505.34;4951348;29;20027;-79
2021/10/26 05:50:46;;;;;;;25.90;14.55;;;;;;;4.71;100.00;98504.03;4960667;28;20438;-80
2021/10/26 05:53:12;;;;;;;24.17;14.48;;;;;;;4.62;100.00;98502.78;4941285;29;20395;-79
2021/10/26 05:55:42;;;;;;;27.77;15.50;;;;;;;4.56;100.00;98506.47;4946100;29;20140;-79
2021/10/26 05:58:07;;;;;;;26.08;14.27;;;;;;;4.59;100.00;98505.97;4970160;28;20019;-81
2021/10/26 06:00:33;;;;;;;24.23;15.02;;;;;;;4.58;100.00;98509.72;4945603;29;20023;-77
2021/10/26 06:02:58;;;;;;;23.52;14.20;;;;;;;4.42;100.00;98514.03;4951747;29;20552;-72
2021/10/26 06:05:24;;;;;;;22.25;14.15;;;;;;;4.54;100.00;98505.88;4958278;29;20029;-79
2021/10/26 06:07:50;;;;;;;27.50;14.68;;;;;;;4.60;100.00;98515.75;4970774;28;20035;-77
2021/10/26 06:10:16;;;;;;;31.40;14.45;;;;;;;4.62;100.00;98527.97;4979519;28;20047;-79
2021/10/26 06:12:49;;;;;;;24.05;15.00;;;;;;;4.61;100.00;98533.63;4962840;28;20027;-78
2021/10/26 06:15:14;;;;;;;22.48;14.63;;;;;;;4.48;100.00;98532.03;4979392;28;20016;-79
2021/10/26 06:17:40;;;;;;;29.48;15.10;;;;;;;4.54;100.00;98532.97;4979804;28;20026;-78
2021/10/26 06:20:06;;;;;;;28.65;15.93;;;;;;;4.62;100.00;98532.56;4977484;28;20019;-78
2021/10/26 06:22:31;;;;;;;25.27;14.57;;;;;;;4.68;100.00;98528.88;4978652;28;20023;-79
2021/10/26 06:24:57;;;;;;;27.30;14.88;;;;;;;4.69;100.00;98541.38;4962625;28;20032;-78
2021/10/26 06:27:23;;;;;;;26.15;14.73;;;;;;;4.65;100.00;98545.63;4962888;28;20016;-77
2021/10/26 06:30:01;;;;;;;30.10;15.60;;;;;;;4.60;100.00;98550.97;4979305;28;20043;-79
2021/10/26 06:32:27;;;;;;;37.30;19.67;;;;;;;4.59;100.00;98546.59;4947683;28;20015;-77
2021/10/26 06:34:53;;;;;;;31.90;20.15;;;;;;;4.70;100.00;98553.84;4962801;28;20015;-78
2021/10/26 06:37:19;;;;;;;43.58;21.40;;;;;;;4.80;100.00;98563.00;4979357;28;20012;-79
2021/10/26 06:39:45;;;;;;;38.10;21.58;;;;;;;4.81;100.00;98558.41;4979111;28;20043;-77
2021/10/26 06:42:11;;;;;;;32.00;20.90;;;;;;;4.81;100.00;98561.94;4962688;28;20007;-78
2021/10/26 06:44:36;;;;;;;39.22;21.88;;;;;;;4.79;100.00;98560.53;4946910;28;20022;-77
2021/10/26 06:47:03;;;;;;;36.95;21.13;;;;;;;4.76;100.00;98558.31;4979381;28;20025;-77
2021/10/26 06:49:29;;;;;;;46.13;22.80;;;;;;;4.82;100.00;98565.47;4963015;28;20042;-77
2021/10/26 06:51:55;;;;;;;43.47;21.33;;;;;;;4.69;100.00;98571.19;4962757;28;20026;-78
2021/10/26 06:54:21;;;;;;;37.70;18.67;;;;;;;4.67;100.00;98571.41;4979135;28;20047;-78
2021/10/26 06:56:46;;;;;;;42.75;20.00;;;;;;;4.56;100.00;98574.16;4962274;28;20004;-78
2021/10/26 06:59:12;;;;;;;27.80;16.48;;;;;;;4.68;100.00;98574.94;4979111;28;20054;-78
2021/10/26 07:01:37;;;;;;;37.60;18.95;;;;;;;4.63;100.00;98569.44;4959622;28;20055;-81
2021/10/26 07:04:03;;;;;;;33.35;18.30;;;;;;;4.62;100.00;98578.63;4961800;29;20019;-80
2021/10/26 07:06:28;;;;;;;34.65;17.90;;;;;;;4.68;100.00;98583.91;4945921;29;20047;-79
2021/10/26 07:08:54;;;;;;;31.02;17.13;;;;;;;4.91;100.00;98584.88;4978400;28;20045;-81
2021/10/26 07:11:19;;;;;;;27.08;16.90;;;;;;;4.72;100.00;98585.06;4962432;28;20038;-79
2021/10/26 07:13:49;;;;;;;30.92;18.48;;;;;;;4.86;100.00;98591.00;4980921;28;20034;-79
2021/10/26 07:16:14;;;;;;;33.70;19.13;;;;;;;4.83;100.00;98580.66;4982168;28;20026;-79
2021/10/26 07:18:40;;;;;;;31.27;17.08;;;;;;;4.85;100.00;98594.78;4982767;28;20034;-78
2021/10/26 07:21:05;;;;;;;30.35;17.38;;;;;;;4.75;100.00;98595.41;4981733;28;20031;-79
2021/10/26 07:23:31;;;;;;;28.95;17.73;;;;;;;4.78;100.00;98589.53;4980317;28;20046;-80
2021/10/26 07:25:56;;;;;;;34.40;18.23;;;;;;;4.85;100.00;98602.94;4980075;28;20078;-82
2021/10/26 07:28:22;;;;;;;35.97;18.48;;;;;;;4.90;100.00;98611.13;4979813;29;20099;-82
2021/10/26 07:30:48;;;;;;;34.00;18.70;;;;;;;4.91;100.00;98601.94;4978888;28;20079;-81
2021/10/26 07:33:18;;;;;;;27.52;17.00;;;;;;;4.97;100.00;98597.44;4976229;29;20030;-80
2021/10/26 07:35:45;;;;;;;34.22;18.13;;;;;;;5.11;100.00;98605.00;4957052;29;20031;-79
2021/10/26 07:38:12;;;;;;;33.63;18.20;;;;;;;5.20;100.00;98617.09;4974445;29;20015;-80
2021/10/26 07:40:37;;;;;;;34.30;19.88;;;;;;;5.31;100.00;98618.94;4973684;29;20495;-80
2021/10/26 07:43:03;;;;;;;36.63;20.38;;;;;;;5.24;100.00;98610.13;4959310;29;20095;-79
2021/10/26 07:45:29;;;;;;;35.97;20.70;;;;;;;5.24;100.00;98610.13;4967106;28;20058;-81
2021/10/26 07:47:55;;;;;;;36.47;18.35;;;;;;;5.12;100.00;98617.50;4950660;29;20051;-81
2021/10/26 07:50:20;;;;;;;41.30;19.48;;;;;;;5.04;100.00;98623.34;4972301;29;20020;-80
2021/10/26 07:52:46;;;;;;;33.20;18.42;;;;;;;5.07;100.00;98622.03;4972949;29;20024;-79
2021/10/26 07:55:12;;;;;;;33.38;17.77;;;;;;;5.07;100.00;98617.44;4962448;29;20041;-81
2021/10/26 07:57:38;;;;;;;32.95;17.60;;;;;;;5.08;100.00;98610.94;4973714;29;20035;-79
2021/10/26 08:00:05;;;;;;;39.05;18.55;;;;;;;5.00;100.00;98616.75;4964836;28;20047;-79
2021/10/26 08:02:31;;;;;;;37.92;17.92;;;;;;;5.08;100.00;98631.78;4964410;29;20019;-79
2021/10/26 08:04:59;;;;;;;29.88;17.42;;;;;;;5.04;100.00;98617.91;4976077;28;20039;-79
2021/10/26 08:07:25;;;;;;;34.92;18.85;;;;;;;5.18;100.00;98621.97;4976631;28;20058;-81
2021/10/26 08:09:56;;;;;;;27.83;16.75;;;;;;;5.03;100.00;98620.88;4960216;29;20032;-80
2021/10/26 08:12:23;;;;;;;29.00;17.13;;;;;;;4.83;100.00;98618.59;4977690;29;19995;-78
2021/10/26 08:14:50;;;;;;;39.35;18.05;;;;;;;4.93;100.00;98629.63;4958508;29;20026;-80
2021/10/26 08:17:15;;;;;;;39.17;18.45;;;;;;;4.97;100.00;98630.78;4956473;29;20055;-81
2021/10/26 08:19:42;;;;;;;33.75;19.58;;;;;;;4.85;100.00;98632.72;4957470;29;20035;-79
2021/10/26 08:22:13;;;;;;;44.42;19.15;;;;;;;4.97;100.00;98633.50;4968940;28;20507;-77
2021/10/26 08:24:39;;;;;;;40.92;20.52;;;;;;;5.05;100.00;98633.09;4955821;29;20031;-78
2021/10/26 08:27:10;;;;;;;37.40;20.17;;;;;;;5.13;100.00;98646.28;4933367;29;20037;-79
2021/10/26 08:29:47;;;;;;;39.05;20.50;;;;;;;5.23;100.00;98651.88;4944416;29;20035;-78
2021/10/26 08:37:09;;;;;;;35.67;19.27;;;;;;;5.38;100.00;98649.44;4954052;28;20460;-78
2021/10/26 08:39:36;;;;;;;38.67;20.48;;;;;;;5.47;100.00;98652.56;4945034;29;20023;-79
2021/10/26 08:42:03;;;;;;;49.55;22.25;;;;;;;5.62;100.00;98652.00;4943348;29;20098;-79
2021/10/26 08:44:29;;;;;;;37.70;19.35;;;;;;;5.75;100.00;98643.53;4946602;29;20114;-78
2021/10/26 08:46:55;;;;;;;31.05;18.75;;;;;;;5.86;100.00;98648.91;4927261;29;20030;-78
2021/10/26 08:49:21;;;;;;;38.90;18.85;;;;;;;5.97;100.00;98647.16;4927838;29;20158;-78
2021/10/26 08:51:49;;;;;;;35.55;19.50;;;;;;;6.11;100.00;98651.16;4959170;29;20031;-77
2021/10/26 08:54:15;;;;;;;40.25;19.23;;;;;;;6.08;100.00;98645.41;4929359;29;20031;-77
2021/10/26 08:56:40;;;;;;;38.45;19.80;;;;;;;6.04;100.00;98661.41;4935020;29;20086;-76
2021/10/26 08:59:06;;;;;;;34.63;19.23;;;;;;;6.07;100.00;98665.50;4948766;29;20150;-77
2021/10/26 09:01:32;;;;;;;35.92;19.42;;;;;;;6.15;100.00;98660.47;4938532;29;20026;-77
2021/10/26 09:04:11;;;;;;;32.17;18.52;;;;;;;6.22;100.00;98655.69;4949443;28;20456;-78
2021/10/26 09:06:48;;;;;;;29.05;17.20;;;;;;;6.27;100.00;98655.75;4935123;28;20062;-77
2021/10/26 09:09:37;;;;;;;22.55;15.48;;;;;;;6.60;100.00;98652.13;4956318;28;20114;-77
2021/10/26 09:17:46;;;;;;;28.33;15.77;;;;;;;6.79;100.00;98655.34;4960254;28;20293;-77
2021/10/26 09:20:21;;;;;;;33.28;17.60;;;;;;;6.78;100.00;98662.69;4958400;28;20049;-77
2021/10/26 09:22:51;;;;;;;33.60;18.17;;;;;;;6.95;100.00;98644.38;4956902;28;20027;-79
2021/10/26 09:25:20;;;;;;;31.88;18.10;;;;;;;6.92;100.00;98649.53;4957420;28;20152;-77
2021/10/26 09:27:46;;;;;;;45.60;19.50;;;;;;;6.90;100.00;98635.34;4958683;28;20396;-78
2021/10/26 09:30:16;;;;;;;34.38;18.77;;;;;;;7.08;100.00;98655.97;4956667;28;20066;-77
2021/10/26 09:32:47;;;;;;;33.30;18.23;;;;;;;6.99;100.00;98655.56;4939378;28;20027;-78
2021/10/26 09:35:17;;;;;;;31.67;17.42;;;;;;;7.05;100.00;98654.56;4956842;28;20031;-78
2021/10/26 09:37:45;;;;;;;32.70;18.35;;;;;;;7.12;100.00;98660.63;4957213;28;20396;-78
2021/10/26 09:40:12;;;;;;;30.05;18.05;;;;;;;7.23;100.00;98653.41;4941734;28;20935;-78
2021/10/26 09:42:45;;;;;;;32.97;19.13;;;;;;;7.22;100.00;98655.31;4946301;28;20046;-78
2021/10/26 09:45:28;;;;;;;33.75;17.67;;;;;;;7.40;100.00;98646.75;4944204;28;20055;-78
2021/10/26 09:47:57;;;;;;;28.45;17.70;;;;;;;7.70;100.00;98650.84;4959179;28;20102;-77
2021/10/26 09:50:30;;;;;;;27.88;17.90;;;;;;;7.84;100.00;98657.50;4958828;28;20083;-77
2021/10/26 09:53:03;;;;;;;30.25;17.85;;;;;;;7.93;100.00;98653.19;4958755;28;20041;-77
2021/10/26 09:55:47;;;;;;;34.85;17.48;;;;;;;8.05;100.00;98665.56;4940632;28;20027;-78
2021/10/26 09:58:14;;;;;;;26.42;16.65;;;;;;;7.92;100.00;98655.13;4955540;28;20050;-76
2021/10/26 10:00:42;;;;;;;28.05;17.58;;;;;;;7.87;99.61;98640.63;4954099;28;20011;-76
2021/10/26 10:03:10;;;;;;;29.38;17.45;;;;;;;8.03;98.94;98645.09;4937690;28;20038;-76
2021/10/26 10:05:51;;;;;;;29.10;17.70;;;;;;;8.15;97.36;98650.34;4956926;28;20035;-76
2021/10/26 10:08:18;;;;;;;28.23;15.40;;;;;;;8.20;96.29;98653.97;4937677;29;20051;-76
2021/10/26 10:10:44;;;;;;;23.83;14.40;;;;;;;8.19;94.05;98649.59;4937918;29;20493;-76
2021/10/26 10:13:09;;;;;;;28.65;13.93;;;;;;;8.21;91.14;98657.47;4947207;28;20116;-76
2021/10/26 10:15:35;;;;;;;34.17;15.20;;;;;;;8.27;92.83;98645.56;4948568;29;20098;-76
2021/10/26 10:18:03;;;;;;;24.65;14.63;;;;;;;8.41;92.22;98652.19;4949541;29;20031;-75
2021/10/26 10:20:28;;;;;;;29.95;15.35;;;;;;;8.50;92.28;98650.59;4947851;29;20082;-76
2021/10/26 10:22:56;;;;;;;24.65;15.80;;;;;;;8.62;91.56;98648.47;4947724;29;20493;-76
2021/10/26 10:25:23;;;;;;;26.90;15.65;;;;;;;8.79;89.85;98643.66;4948176;28;20043;-76
2021/10/26 10:27:51;;;;;;;24.20;15.05;;;;;;;8.74;89.07;98657.25;4946971;29;20031;-76
2021/10/26 10:30:17;;;;;;;23.98;15.20;;;;;;;8.57;89.00;98652.03;4938202;29;20059;-75
2021/10/26 10:32:42;;;;;;;37.70;16.23;;;;;;;8.35;90.61;98647.81;4937143;29;20027;-78
2021/10/26 10:35:18;;;;;;;25.75;16.20;;;;;;;8.28;91.48;98642.59;4948626;28;20087;-76
2021/10/26 10:37:48;;;;;;;32.53;16.58;;;;;;;8.21;92.34;98643.84;4947209;29;20477;-78
2021/10/26 10:40:22;;;;;;;24.10;15.18;;;;;;;8.19;91.74;98640.59;4945949;29;20043;-78
2021/10/26 10:42:51;;;;;;;22.58;14.75;;;;;;;8.15;91.80;98642.19;4963554;29;21377;-78
2021/10/26 10:45:35;;;;;;;26.25;15.68;;;;;;;8.08;92.55;98637.00;4949175;28;20038;-80
2021/10/26 10:48:02;;;;;;;29.63;16.45;;;;;;;8.03;92.85;98629.59;4959830;29;20453;-76
2021/10/26 10:50:37;;;;;;;25.90;15.98;;;;;;;7.91;94.06;98625.41;4951818;29;20096;-77
2021/10/26 10:53:15;;;;;;;32.78;16.95;;;;;;;7.87;92.87;98630.56;4939760;29;20107;-78
2021/10/26 10:55:51;;;;;;;39.00;18.00;;;;;;;7.83;93.38;98606.84;4946321;29;20042;-77
2021/10/26 10:58:23;;;;;;;31.65;15.73;;;;;;;7.91;93.98;98601.72;4948761;29;20038;-77
2021/10/26 11:00:50;;;;;;;31.40;17.80;;;;;;;8.01;94.16;98618.16;4948506;29;20095;-78
2021/10/26 11:03:32;;;;;;;36.00;18.38;;;;;;;8.21;93.41;98619.31;4934525;29;20118;-78
2021/10/26 11:06:00;;;;;;;35.13;19.38;;;;;;;8.07;93.85;98624.44;4926221;29;20037;-76
2021/10/26 11:08:49;;;;;;;37.45;18.75;;;;;;;8.12;94.40;98608.13;4927324;29;20123;-79
2021/10/26 11:11:17;;;;;;;35.58;19.30;;;;;;;8.12;95.00;98615.47;4947986;29;20023;-78
2021/10/26 11:13:43;;;;;;;33.58;18.15;;;;;;;8.09;95.06;98611.38;4939182;29;20027;-76
2021/10/26 11:16:12;;;;;;;29.67;17.25;;;;;;;8.20;94.38;98609.53;4949379;28;20039;-77
2021/10/26 11:18:39;;;;;;;29.90;16.55;;;;;;;8.23;92.90;98612.56;4943201;28;20033;-77
2021/10/26 11:21:24;;;;;;;26.65;15.27;;;;;;;8.27;92.80;98610.13;4950604;29;20117;-75
2021/10/26 11:24:02;;;;;;;28.98;16.00;;;;;;;8.32;92.26;98605.56;4940453;29;20055;-75
2021/10/26 11:26:40;;;;;;;35.38;17.40;;;;;;;7.99;93.00;98609.41;4951862;29;20042;-75
2021/10/26 11:29:08;;;;;;;27.25;16.38;;;;;;;7.99;93.58;98594.94;4949289;29;20058;-76
2021/10/26 11:31:51;;;;;;;39.30;16.98;;;;;;;8.01;95.20;98603.69;4949764;29;20049;-76
2021/10/26 11:34:19;;;;;;;30.02;16.63;;;;;;;7.99;94.12;98595.78;4939898;29;20479;-76